Time;durP1;ratioP1;P1;durP2;ratioP2;P2;SDS_P1;SDS_P2;PMS_P1;PMS_P2;Temp;Humidity;BMP_temperature;BMP_pressure;BME280_temperature;BME280_humidity;BME280_pressure;Samples;Min_cycle;Max_cycle;Signal;HPM_P1;HPM_P2
2023/04/20 00:00:29;;;;;;;5.65;2.70;;;7.80;99.90;;;;;;12513245;28;20045;-80
2023/04/20 00:06:33;;;;;;;5.30;2.47;;;7.70;99.90;;;;;;12514989;28;20060;-80
2023/04/20 00:12:35;;;;;;;8.75;2.97;;;7.70;99.90;;;;;;12521486;28;20040;-80
2023/04/20 00:18:36;;;;;;;14.85;3.42;;;7.60;99.90;;;;;;12522213;28;20048;-80
2023/04/20 00:24:38;;;;;;;5.03;3.17;;;7.40;99.90;;;;;;12512790;28;20045;-80
2023/04/20 00:30:40;;;;;;;5.93;3.03;;;6.90;99.90;;;;;;12508543;28;20437;-80
2023/04/20 00:36:42;;;;;;;10.10;3.05;;;6.80;99.90;;;;;;12513365;28;20053;-80
2023/04/20 00:42:44;;;;;;;7.38;3.35;;;6.80;99.90;;;;;;12505732;28;20711;-80
2023/04/20 00:48:48;;;;;;;9.05;3.20;;;6.90;99.90;;;;;;12530573;28;20063;-80
2023/04/20 00:54:50;;;;;;;5.67;2.50;;;6.70;99.90;;;;;;12508341;28;20086;-80
2023/04/20 01:00:52;;;;;;;7.05;3.20;;;6.70;99.90;;;;;;12506827;28;20287;-80
2023/04/20 01:06:54;;;;;;;5.85;2.97;;;6.60;99.90;;;;;;12514800;28;20211;-80
2023/04/20 01:12:56;;;;;;;6.78;3.20;;;6.60;99.90;;;;;;12514781;28;20103;-80
2023/04/20 01:18:57;;;;;;;5.03;2.92;;;6.60;99.90;;;;;;12513764;28;20049;-80
2023/04/20 01:24:59;;;;;;;5.68;2.35;;;6.60;99.90;;;;;;12525692;28;20056;-80
2023/04/20 01:31:03;;;;;;;4.93;2.72;;;6.50;99.90;;;;;;12508594;28;20080;-80
2023/04/20 01:37:07;;;;;;;5.47;3.40;;;6.50;99.90;;;;;;12528442;28;20053;-80
2023/04/20 01:43:10;;;;;;;5.00;2.80;;;6.50;99.90;;;;;;12510815;28;20118;-80
2023/04/20 01:49:12;;;;;;;9.80;3.20;;;6.40;99.90;;;;;;12500038;28;20056;-80
2023/04/20 01:55:14;;;;;;;8.05;2.67;;;6.30;99.90;;;;;;12511115;28;20508;-80
2023/04/20 02:01:16;;;;;;;6.65;3.03;;;6.20;99.90;;;;;;12503868;28;20053;-80
2023/04/20 02:07:18;;;;;;;7.47;2.90;;;6.10;99.90;;;;;;12486986;28;20106;-80
2023/04/20 02:13:20;;;;;;;5.88;3.05;;;6.10;99.90;;;;;;12479873;28;20049;-80
2023/04/20 02:19:22;;;;;;;6.25;2.72;;;6.10;99.90;;;;;;12495989;28;20058;-81
2023/04/20 02:25:24;;;;;;;6.90;3.42;;;6.10;99.90;;;;;;12497236;28;20059;-81
2023/04/20 02:31:26;;;;;;;6.78;2.90;;;6.10;99.90;;;;;;12503126;28;20535;-80
2023/04/20 02:37:28;;;;;;;6.82;3.47;;;6.10;99.90;;;;;;12516958;28;20045;-80
2023/04/20 02:43:30;;;;;;;6.85;3.10;;;6.10;99.90;;;;;;12515776;28;20060;-80
2023/04/20 02:49:32;;;;;;;4.45;2.85;;;6.00;99.90;;;;;;12516972;28;20600;-80
2023/04/20 02:55:34;;;;;;;8.95;3.25;;;5.90;99.90;;;;;;12512107;28;20407;-80
2023/04/20 03:01:36;;;;;;;5.28;2.92;;;5.80;99.90;;;;;;12510385;28;20489;-80
2023/04/20 03:07:38;;;;;;;6.75;2.78;;;5.80;99.90;;;;;;12513370;28;20053;-80
2023/04/20 03:13:40;;;;;;;5.88;2.80;;;5.70;99.90;;;;;;12509275;28;20049;-80
2023/04/20 03:19:42;;;;;;;4.55;2.70;;;5.60;99.90;;;;;;12535851;28;20609;-80
2023/04/20 03:25:45;;;;;;;7.28;2.90;;;5.60;99.90;;;;;;12513833;28;20056;-80
2023/04/20 03:31:47;;;;;;;7.05;3.05;;;5.60;99.90;;;;;;12535297;28;20713;-80
2023/04/20 03:37:48;;;;;;;9.10;3.67;;;5.50;99.90;;;;;;12529238;28;20045;-80
2023/04/20 03:43:50;;;;;;;7.78;3.42;;;5.50;99.90;;;;;;12506657;28;20045;-80
2023/04/20 03:49:52;;;;;;;8.00;3.80;;;5.50;99.90;;;;;;12515490;28;20311;-80
2023/04/20 03:55:54;;;;;;;6.75;3.72;;;5.50;99.90;;;;;;12507898;28;20098;-80
2023/04/20 04:01:59;;;;;;;8.52;3.72;;;5.50;99.90;;;;;;12489949;28;20061;-80
2023/04/20 04:08:01;;;;;;;8.32;4.15;;;5.50;99.90;;;;;;12505996;28;20068;-80
2023/04/20 04:14:04;;;;;;;8.15;4.13;;;5.40;99.90;;;;;;12519643;28;20049;-80
2023/04/20 04:20:10;;;;;;;9.93;3.70;;;5.40;99.90;;;;;;12516487;28;20136;-80
2023/04/20 04:26:12;;;;;;;8.10;4.10;;;5.40;99.90;;;;;;12533632;28;20802;-80
2023/04/20 04:32:14;;;;;;;8.55;4.85;;;5.40;99.90;;;;;;12477257;28;20053;-81
2023/04/20 04:38:16;;;;;;;10.43;5.28;;;5.30;99.90;;;;;;12505500;28;20053;-81
2023/04/20 04:44:18;;;;;;;12.90;5.47;;;5.40;99.90;;;;;;12502236;28;20056;-81
2023/04/20 04:50:21;;;;;;;13.60;5.45;;;5.40;99.90;;;;;;12510028;28;20063;-81
2023/04/20 04:56:23;;;;;;;9.88;5.60;;;5.40;99.90;;;;;;12503438;28;20060;-81
2023/04/20 05:02:24;;;;;;;12.15;5.45;;;5.40;99.90;;;;;;12497224;28;20072;-81
2023/04/20 05:08:27;;;;;;;11.05;5.32;;;5.50;99.90;;;;;;12493217;28;20057;-81
2023/04/20 05:14:30;;;;;;;9.50;5.68;;;5.50;99.90;;;;;;12519573;28;20555;-81
2023/04/20 05:20:32;;;;;;;12.60;5.10;;;5.50;99.90;;;;;;12509882;28;20693;-81
2023/04/20 05:26:34;;;;;;;13.38;6.05;;;5.50;99.90;;;;;;12519186;28;20258;-81
2023/04/20 05:32:36;;;;;;;12.52;5.25;;;5.50;99.90;;;;;;12497017;28;20053;-81
2023/04/20 05:38:38;;;;;;;12.65;5.55;;;5.40;99.90;;;;;;12495208;28;20083;-81
2023/04/20 05:44:42;;;;;;;13.13;5.63;;;5.40;99.90;;;;;;12509479;28;20056;-81
2023/04/20 05:50:43;;;;;;;10.90;5.40;;;5.50;99.90;;;;;;12522105;28;20071;-80
2023/04/20 05:56:45;;;;;;;11.15;5.32;;;5.60;99.90;;;;;;12495937;28;20050;-81
2023/04/20 06:02:47;;;;;;;10.75;5.13;;;5.60;99.90;;;;;;12521461;28;20053;-81
2023/04/20 06:08:49;;;;;;;11.00;4.78;;;5.50;99.90;;;;;;12519840;28;20099;-81
2023/04/20 06:14:52;;;;;;;12.00;5.60;;;5.60;99.90;;;;;;12517782;28;20045;-81
2023/04/20 06:20:54;;;;;;;13.88;6.10;;;5.60;99.90;;;;;;12540956;28;20091;-82
2023/04/20 06:26:56;;;;;;;10.63;6.32;;;5.60;99.90;;;;;;12502793;28;20413;-82
2023/04/20 06:32:58;;;;;;;12.02;5.63;;;5.60;99.90;;;;;;12506816;28;20053;-81
2023/04/20 06:39:00;;;;;;;11.25;5.20;;;5.60;99.90;;;;;;12509328;28;20056;-81
2023/04/20 06:45:02;;;;;;;9.27;5.90;;;5.70;99.90;;;;;;12527776;28;20048;-81
2023/04/20 06:51:04;;;;;;;12.15;5.85;;;5.70;99.90;;;;;;12486687;28;20130;-82
2023/04/20 06:57:06;;;;;;;11.43;5.35;;;5.70;99.90;;;;;;12515129;28;20072;-81
2023/04/20 07:03:07;;;;;;;11.30;6.15;;;5.80;99.90;;;;;;12505057;28;21639;-81
2023/04/20 07:09:10;;;;;;;13.90;6.93;;;5.80;99.90;;;;;;12508445;28;20049;-82
2023/04/20 07:15:12;;;;;;;11.30;5.88;;;5.80;99.90;;;;;;12529926;28;20080;-82
2023/04/20 07:21:14;;;;;;;14.48;5.93;;;5.90;99.90;;;;;;12514956;28;20501;-81
2023/04/20 07:27:16;;;;;;;11.05;6.40;;;6.00;99.90;;;;;;12512303;28;20061;-81
2023/04/20 07:33:19;;;;;;;12.10;6.25;;;6.20;99.90;;;;;;12502039;28;20053;-81
2023/04/20 07:39:24;;;;;;;12.85;6.32;;;6.30;99.90;;;;;;12497373;28;20058;-81
2023/04/20 07:45:26;;;;;;;13.07;6.72;;;6.70;99.90;;;;;;12518325;28;20140;-81
2023/04/20 07:51:29;;;;;;;11.00;7.18;;;6.70;99.90;;;;;;12508578;28;20046;-82
2023/04/20 07:57:31;;;;;;;10.52;6.25;;;6.90;99.90;;;;;;12481070;28;20631;-82
2023/04/20 08:03:34;;;;;;;10.13;6.28;;;7.00;99.90;;;;;;12505508;28;20503;-82
2023/04/20 08:09:36;;;;;;;11.77;6.15;;;7.00;99.90;;;;;;12512419;28;20045;-81
2023/04/20 08:15:38;;;;;;;8.50;6.03;;;7.20;99.90;;;;;;12494929;28;20060;-81
2023/04/20 08:21:40;;;;;;;9.57;5.70;;;7.50;99.90;;;;;;12487899;28;20054;-81
2023/04/20 08:27:43;;;;;;;10.05;6.13;;;7.80;99.90;;;;;;12499449;28;20456;-82
2023/04/20 08:33:45;;;;;;;12.55;5.70;;;8.50;99.90;;;;;;12486252;28;20045;-81
2023/04/20 08:39:49;;;;;;;6.57;4.90;;;8.30;99.90;;;;;;12499113;28;20056;-82
2023/04/20 08:45:52;;;;;;;6.47;4.63;;;8.80;99.90;;;;;;12485596;28;20053;-82
2023/04/20 08:51:54;;;;;;;8.52;4.70;;;8.80;99.90;;;;;;12520293;28;20048;-82
2023/04/20 08:57:56;;;;;;;6.35;3.85;;;8.40;99.90;;;;;;12506663;28;20049;-82
2023/04/20 09:03:59;;;;;;;6.00;3.90;;;8.10;99.90;;;;;;12513117;28;20044;-82
2023/04/20 09:10:01;;;;;;;7.82;3.85;;;8.20;99.90;;;;;;12495558;28;20045;-81
2023/04/20 09:16:11;;;;;;;5.38;3.78;;;8.10;99.90;;;;;;12495081;28;20053;-81
2023/04/20 09:22:13;;;;;;;5.45;3.83;;;7.90;99.90;;;;;;12514858;28;20056;-82
2023/04/20 09:28:16;;;;;;;5.47;4.00;;;7.90;99.90;;;;;;12499916;28;20065;-81
2023/04/20 09:34:19;;;;;;;5.18;4.18;;;8.00;99.90;;;;;;12506403;28;20053;-81
2023/04/20 09:40:26;;;;;;;6.40;4.10;;;8.10;99.90;;;;;;12493176;28;21347;-82
2023/04/20 09:46:32;;;;;;;5.72;4.38;;;8.30;99.90;;;;;;12494378;28;20102;-82
2023/04/20 09:52:37;;;;;;;5.88;4.90;;;8.70;99.90;;;;;;12504376;28;20072;-82
2023/04/20 09:58:41;;;;;;;7.22;5.30;;;8.60;99.90;;;;;;12496903;28;20141;-81
2023/04/20 10:04:53;;;;;;;6.78;5.50;;;8.80;99.90;;;;;;12506275;28;20059;-82
2023/04/20 10:10:55;;;;;;;7.47;5.28;;;9.30;99.90;;;;;;12503958;28;20095;-82
2023/04/20 10:17:05;;;;;;;8.63;6.10;;;9.20;99.90;;;;;;12482480;28;20049;-82
2023/04/20 10:23:10;;;;;;;9.68;5.97;;;8.90;99.90;;;;;;12490631;28;20041;-82
2023/04/20 10:29:27;;;;;;;7.05;6.22;;;8.90;99.90;;;;;;12512733;28;20053;-82
2023/04/20 10:35:45;;;;;;;9.95;6.85;;;8.90;99.90;;;;;;12487924;28;20123;-82
2023/04/20 10:42:00;;;;;;;6.93;5.80;;;9.30;99.90;;;;;;12504452;28;20045;-82
2023/04/20 10:48:11;;;;;;;6.93;5.47;;;9.20;99.90;;;;;;12504206;28;20911;-82
2023/04/20 10:54:13;;;;;;;7.78;5.35;;;9.20;99.90;;;;;;12485381;28;20395;-82
2023/04/20 11:00:20;;;;;;;8.40;5.82;;;9.40;99.90;;;;;;12505226;28;20057;-82
2023/04/20 11:06:22;;;;;;;7.38;5.47;;;9.20;99.90;;;;;;12500104;28;20053;-82
2023/04/20 11:12:24;;;;;;;6.18;5.10;;;9.50;99.90;;;;;;12521645;28;20060;-82
2023/04/20 11:18:26;;;;;;;7.47;5.40;;;9.70;99.90;;;;;;12507647;28;20493;-82
2023/04/20 11:24:30;;;;;;;8.57;5.68;;;9.70;99.90;;;;;;12511551;28;20098;-82
2023/04/20 11:30:41;;;;;;;6.33;4.67;;;9.70;99.90;;;;;;12514212;28;20053;-82
2023/04/20 11:36:45;;;;;;;5.95;4.57;;;9.50;99.90;;;;;;12488388;28;20045;-82
2023/04/20 11:42:47;;;;;;;5.80;4.38;;;9.70;99.90;;;;;;12499399;28;20041;-83
2023/04/20 11:48:49;;;;;;;6.57;4.50;;;10.00;99.90;;;;;;12491431;28;20064;-82
2023/04/20 11:54:50;;;;;;;7.40;5.50;;;9.80;99.90;;;;;;12494064;28;20106;-82
2023/04/20 12:00:52;;;;;;;7.30;5.85;;;10.00;99.90;;;;;;12527306;28;20041;-82
2023/04/20 12:06:54;;;;;;;9.60;5.45;;;10.50;99.90;;;;;;12497474;28;20053;-82
2023/04/20 12:12:57;;;;;;;6.45;4.68;;;11.10;99.90;;;;;;12525236;28;20053;-83
2023/04/20 12:18:59;;;;;;;7.22;5.93;;;10.30;99.90;;;;;;12512213;28;20049;-82
2023/04/20 12:25:01;;;;;;;8.90;5.55;;;9.80;99.90;;;;;;12502304;28;20132;-82
2023/04/20 12:31:03;;;;;;;8.93;5.90;;;9.50;99.90;;;;;;12499478;28;20500;-82
2023/04/20 12:37:04;;;;;;;7.63;5.68;;;9.60;99.90;;;;;;12513099;28;20056;-81
2023/04/20 12:43:06;;;;;;;8.52;6.00;;;10.10;99.90;;;;;;12499844;28;20090;-82
2023/04/20 12:49:08;;;;;;;6.75;5.30;;;9.90;99.90;;;;;;12472425;28;20807;-82
2023/04/20 12:55:11;;;;;;;6.43;4.90;;;9.90;99.90;;;;;;12498760;28;20184;-82
2023/04/20 13:01:13;;;;;;;6.18;5.57;;;9.90;99.90;;;;;;12514082;28;20105;-82
2023/04/20 13:07:15;;;;;;;5.55;4.75;;;10.30;99.90;;;;;;12524522;28;20493;-83
2023/04/20 13:13:17;;;;;;;6.70;5.47;;;10.50;99.90;;;;;;12526087;28;20085;-83
2023/04/20 13:19:19;;;;;;;7.18;5.88;;;10.40;99.90;;;;;;12527939;28;20390;-83
2023/04/20 13:25:21;;;;;;;7.07;5.30;;;10.10;99.90;;;;;;12513774;28;20056;-82
2023/04/20 13:31:24;;;;;;;7.88;5.95;;;10.50;99.90;;;;;;12512698;28;20171;-82
2023/04/20 13:37:26;;;;;;;7.07;5.20;;;10.70;99.90;;;;;;12513686;28;20057;-83
2023/04/20 13:43:28;;;;;;;6.15;4.78;;;11.40;99.90;;;;;;12510994;28;20424;-83
2023/04/20 13:49:29;;;;;;;4.60;3.78;;;12.10;99.90;;;;;;12507619;28;20140;-83
2023/04/20 13:55:31;;;;;;;5.22;4.20;;;12.00;99.90;;;;;;12504660;28;20090;-83
2023/04/20 14:01:33;;;;;;;5.75;4.03;;;12.10;99.90;;;;;;12509963;28;20071;-83
2023/04/20 14:07:35;;;;;;;5.75;4.57;;;12.20;99.90;;;;;;12524124;28;20175;-83
2023/04/20 14:13:37;;;;;;;7.30;4.53;;;11.70;99.90;;;;;;12512001;28;20087;-83
2023/04/20 14:19:39;;;;;;;6.60;4.47;;;11.60;99.90;;;;;;12541360;28;20052;-83
2023/04/20 14:25:41;;;;;;;5.72;4.70;;;11.30;99.90;;;;;;12509748;28;20565;-83
2023/04/20 14:31:43;;;;;;;8.02;4.70;;;11.20;99.90;;;;;;12508955;28;20053;-83
2023/04/20 14:37:45;;;;;;;6.97;4.57;;;11.10;99.90;;;;;;12508088;28;20653;-83
2023/04/20 14:43:47;;;;;;;5.80;4.90;;;11.50;99.90;;;;;;12516234;28;21281;-83
2023/04/20 14:49:49;;;;;;;5.97;4.97;;;11.90;99.90;;;;;;12495496;28;20608;-83
2023/04/20 14:55:50;;;;;;;6.25;5.60;;;11.50;99.90;;;;;;12516731;28;20049;-83
2023/04/20 15:01:52;;;;;;;5.57;4.70;;;10.90;99.90;;;;;;12493728;28;20044;-83
2023/04/20 15:08:04;;;;;;;7.88;5.40;;;10.70;99.90;;;;;;12515806;28;20245;-83
2023/04/20 15:14:06;;;;;;;7.53;5.50;;;10.60;99.90;;;;;;12516716;28;20053;-83
2023/04/20 15:20:08;;;;;;;7.72;5.40;;;10.50;99.90;;;;;;12516727;28;20053;-82
2023/04/20 15:26:10;;;;;;;8.95;5.50;;;10.60;99.90;;;;;;12513257;28;20057;-83
2023/04/20 15:32:12;;;;;;;7.00;5.45;;;10.60;99.90;;;;;;12499627;28;20045;-83
2023/04/20 15:38:14;;;;;;;10.60;5.68;;;10.60;99.90;;;;;;12513962;28;20073;-83
2023/04/20 15:44:16;;;;;;;5.30;4.50;;;10.60;99.90;;;;;;12491112;28;20117;-83
2023/04/20 15:50:18;;;;;;;6.35;4.63;;;10.30;99.90;;;;;;12520963;28;20068;-83
2023/04/20 15:56:21;;;;;;;6.07;4.80;;;10.20;99.90;;;;;;12512841;28;20094;-83
2023/04/20 16:02:23;;;;;;;6.95;5.25;;;10.10;99.90;;;;;;12494717;28;20061;-83
2023/04/20 16:08:25;;;;;;;7.93;5.60;;;10.00;99.90;;;;;;12513992;28;20189;-83
2023/04/20 16:14:27;;;;;;;8.80;5.75;;;9.90;99.90;;;;;;12515305;28;20076;-83
2023/04/20 16:20:29;;;;;;;9.48;5.93;;;9.80;99.90;;;;;;12518011;28;20083;-82
2023/04/20 16:26:31;;;;;;;9.55;6.32;;;9.70;99.90;;;;;;12499753;28;20050;-82
2023/04/20 16:32:33;;;;;;;8.07;5.80;;;9.60;99.90;;;;;;12493946;28;20416;-82
2023/04/20 16:38:35;;;;;;;8.95;6.05;;;9.50;99.90;;;;;;12504474;28;20052;-83
2023/04/20 16:44:37;;;;;;;11.05;6.38;;;9.40;99.90;;;;;;12483249;28;20049;-83
2023/04/20 16:50:42;;;;;;;11.48;6.95;;;9.30;99.90;;;;;;12518495;28;20048;-82
2023/04/20 16:56:44;;;;;;;8.73;5.72;;;9.20;99.90;;;;;;12501716;28;20045;-82
2023/04/20 17:02:46;;;;;;;8.93;6.10;;;9.20;99.90;;;;;;12543311;28;20122;-82
2023/04/20 17:08:49;;;;;;;7.10;4.93;;;9.00;99.90;;;;;;12584386;28;20056;-82
2023/04/20 17:14:50;;;;;;;8.23;4.57;;;8.90;99.90;;;;;;12542692;28;20056;-83
2023/04/20 17:20:55;;;;;;;7.80;4.85;;;8.70;99.90;;;;;;12564952;28;20109;-83
2023/04/20 17:26:56;;;;;;;6.43;4.47;;;8.70;99.90;;;;;;12561705;28;20052;-83
2023/04/20 17:32:59;;;;;;;7.43;5.05;;;8.60;99.90;;;;;;12536925;28;20072;-82
2023/04/20 17:39:01;;;;;;;6.85;5.00;;;8.50;99.90;;;;;;12554881;28;20042;-82
2023/04/20 17:45:03;;;;;;;9.18;5.35;;;8.50;99.90;;;;;;12554132;28;20086;-82
2023/04/20 17:51:05;;;;;;;9.05;6.50;;;8.40;99.90;;;;;;12550380;28;20052;-82
2023/04/20 17:57:07;;;;;;;12.50;8.70;;;8.30;99.90;;;;;;12572628;28;20064;-82
2023/04/20 18:03:10;;;;;;;13.38;8.40;;;8.30;99.90;;;;;;12565671;28;20071;-83
2023/04/20 18:09:12;;;;;;;13.40;8.88;;;8.20;99.90;;;;;;12565348;28;20532;-82
2023/04/20 18:15:14;;;;;;;15.07;10.00;;;8.20;99.90;;;;;;12553692;28;20093;-82
2023/04/20 18:21:16;;;;;;;14.80;10.45;;;8.20;99.90;;;;;;12540390;28;20506;-82
2023/04/20 18:27:19;;;;;;;16.52;10.88;;;8.20;99.90;;;;;;12536727;28;20524;-82
2023/04/20 18:33:21;;;;;;;18.02;11.65;;;8.20;99.90;;;;;;12518505;28;20051;-81
2023/04/20 18:39:24;;;;;;;18.10;11.65;;;8.10;99.90;;;;;;12540364;28;20049;-81
2023/04/20 18:45:27;;;;;;;18.27;11.63;;;8.10;99.90;;;;;;12515294;28;20432;-82
2023/04/20 18:51:30;;;;;;;20.50;12.30;;;8.10;99.90;;;;;;12528345;28;20060;-80
2023/04/20 18:57:32;;;;;;;20.80;13.77;;;8.20;99.90;;;;;;12512398;28;20515;-81
2023/04/20 19:03:34;;;;;;;20.73;13.35;;;8.20;99.90;;;;;;12539413;28;20048;-81
2023/04/20 19:09:36;;;;;;;23.52;14.00;;;8.20;99.90;;;;;;12510494;28;20543;-81
2023/04/20 19:15:40;;;;;;;20.88;13.73;;;8.30;99.90;;;;;;12519901;28;20147;-82
2023/04/20 19:21:41;;;;;;;22.23;14.23;;;8.30;99.90;;;;;;12516814;28;20070;-81
2023/04/20 19:27:43;;;;;;;22.05;15.30;;;8.30;99.90;;;;;;12523398;28;20060;-81
2023/04/20 19:33:45;;;;;;;23.65;16.27;;;8.30;99.90;;;;;;12519794;28;20102;-81
2023/04/20 19:39:48;;;;;;;26.13;16.50;;;8.20;99.90;;;;;;12504665;28;20060;-81
2023/04/20 19:45:49;;;;;;;24.27;16.80;;;8.20;99.90;;;;;;12522853;28;20072;-81
2023/04/20 19:51:51;;;;;;;27.75;17.15;;;8.30;99.90;;;;;;12494460;28;20046;-82
2023/04/20 19:57:53;;;;;;;26.77;17.17;;;8.30;99.90;;;;;;12501905;28;20077;-81
2023/04/20 20:03:55;;;;;;;25.90;18.02;;;8.30;99.90;;;;;;12528821;28;20157;-81
2023/04/20 20:09:58;;;;;;;26.38;18.00;;;8.40;99.90;;;;;;12496908;28;20050;-81
2023/04/20 20:15:59;;;;;;;24.45;17.60;;;8.40;99.90;;;;;;12529484;28;20192;-81
2023/04/20 20:22:02;;;;;;;28.15;17.80;;;8.40;99.90;;;;;;12508896;28;20094;-81
2023/04/20 20:28:04;;;;;;;23.23;16.27;;;8.40;99.90;;;;;;12514437;28;20117;-81
2023/04/20 20:34:06;;;;;;;25.65;15.85;;;8.40;99.90;;;;;;12502489;28;20188;-81
2023/04/20 20:40:11;;;;;;;23.63;16.47;;;8.40;99.90;;;;;;12500700;28;20535;-81
2023/04/20 20:46:12;;;;;;;27.08;16.95;;;8.40;99.90;;;;;;12492597;28;20064;-81
2023/04/20 20:52:15;;;;;;;27.70;17.67;;;8.30;99.90;;;;;;12522516;28;20064;-81
2023/04/20 20:58:17;;;;;;;26.25;18.00;;;8.30;99.90;;;;;;12485425;28;20056;-81
2023/04/20 21:04:18;;;;;;;24.40;16.73;;;8.40;99.90;;;;;;12507340;28;20055;-81
2023/04/20 21:10:20;;;;;;;24.00;16.63;;;8.40;99.90;;;;;;12506285;28;20061;-82
2023/04/20 21:16:22;;;;;;;23.38;15.43;;;8.40;99.90;;;;;;12523638;28;20448;-80
2023/04/20 21:22:24;;;;;;;22.75;16.25;;;8.40;99.90;;;;;;12512688;28;20216;-81
2023/04/20 21:28:26;;;;;;;21.05;15.60;;;8.40;99.90;;;;;;12505651;28;20052;-81
2023/04/20 21:34:28;;;;;;;25.50;16.10;;;8.40;99.90;;;;;;12495576;28;20393;-81
2023/04/20 21:40:29;;;;;;;20.85;13.95;;;8.30;99.90;;;;;;12499239;28;20467;-81
2023/04/20 21:46:32;;;;;;;22.45;14.90;;;8.40;99.90;;;;;;12506193;28;20057;-81
2023/04/20 21:52:34;;;;;;;22.77;15.35;;;8.40;99.90;;;;;;12500440;28;20045;-81
2023/04/20 21:58:36;;;;;;;23.63;15.00;;;8.50;99.90;;;;;;12485958;28;20064;-82
2023/04/20 22:04:38;;;;;;;24.05;15.18;;;8.50;99.90;;;;;;12495196;28;20132;-81
2023/04/20 22:10:40;;;;;;;24.48;15.75;;;8.60;99.90;;;;;;12504871;28;20098;-81
2023/04/20 22:16:42;;;;;;;21.63;15.05;;;8.60;99.90;;;;;;12506002;28;20053;-81
2023/04/20 22:22:45;;;;;;;25.08;16.25;;;8.60;99.90;;;;;;12505342;28;20497;-82
2023/04/20 22:28:46;;;;;;;26.17;16.10;;;8.60;99.90;;;;;;12516417;28;20053;-82
2023/04/20 22:34:48;;;;;;;21.65;15.30;;;8.70;99.90;;;;;;12498921;28;20045;-81
2023/04/20 22:40:50;;;;;;;26.00;15.68;;;8.70;99.90;;;;;;12511558;28;20286;-82
2023/04/20 22:46:52;;;;;;;23.42;16.67;;;8.60;99.90;;;;;;12525747;28;20080;-82
2023/04/20 22:52:54;;;;;;;23.85;16.38;;;8.70;99.90;;;;;;12522307;28;20048;-81
2023/04/20 22:58:56;;;;;;;25.02;15.65;;;8.60;99.90;;;;;;12533664;28;20052;-82
2023/04/20 23:04:57;;;;;;;25.77;15.75;;;8.50;99.90;;;;;;12501711;28;20041;-81
2023/04/20 23:10:59;;;;;;;23.48;15.90;;;8.40;99.90;;;;;;12524857;28;20050;-82
2023/04/20 23:17:05;;;;;;;28.92;16.40;;;8.20;99.90;;;;;;12515165;28;20107;-82
2023/04/20 23:23:09;;;;;;;26.23;15.63;;;8.20;99.90;;;;;;12544493;28;20239;-81
2023/04/20 23:29:10;;;;;;;22.70;14.93;;;8.20;99.90;;;;;;12519474;28;20056;-82
2023/04/20 23:35:12;;;;;;;23.52;16.38;;;8.30;99.90;;;;;;12507692;28;20056;-81
2023/04/20 23:41:14;;;;;;;24.75;15.70;;;8.30;99.90;;;;;;12520782;28;20504;-81
2023/04/20 23:47:16;;;;;;;24.00;15.57;;;8.20;99.90;;;;;;12493638;28;20057;-81
2023/04/20 23:53:18;;;;;;;23.80;16.73;;;8.10;99.90;;;;;;12506987;28;20052;-81
2023/04/20 23:59:20;;;;;;;24.63;17.23;;;8.10;99.90;;;;;;12504680;28;20049;-82
